Home > Products > Valid Products > TAF

000
FTUS45 KCYS 092320
TAFRWL
TAF
KRWL 092320Z 1000/1024 25012G18KT P6SM SKC
     FM100700 25018G28KT P6SM SKC=



000
FTUS45 KCYS 092320
TAFCYS
TAF
KCYS 092320Z 1000/1024 29015G25KT P6SM SKC
     FM100700 29025G35KT P6SM SKC=



000
FTUS45 KCYS 092320
TAFLAR
TAF
KLAR 092320Z 1000/1024 27011KT P6SM SKC
     FM101100 25020G30KT P6SM SKC=



000
FTUS45 KCYS 092320
TAFLAR
TAF
KLAR 092320Z 1000/1024 27011KT P6SM SKC
     FM101100 25020G30KT P6SM SKC=



000
FTUS45 KCYS 092320
TAFRWL
TAF
KRWL 092320Z 1000/1024 25012G18KT P6SM SKC
     FM100700 25018G28KT P6SM SKC=



000
FTUS45 KCYS 092320
TAFCYS
TAF
KCYS 092320Z 1000/1024 29015G25KT P6SM SKC
     FM100700 29025G35KT P6SM SKC=



000
FTUS45 KCYS 092320
TAFLAR
TAF
KLAR 092320Z 1000/1024 27011KT P6SM SKC
     FM101100 25020G30KT P6SM SKC=



000
FTUS45 KCYS 092320
TAFCYS
TAF
KCYS 092320Z 1000/1024 29015G25KT P6SM SKC
     FM100700 29025G35KT P6SM SKC=



000
FTUS45 KCYS 092320
TAFRWL
TAF
KRWL 092320Z 1000/1024 25012G18KT P6SM SKC
     FM100700 25018G28KT P6SM SKC=



000
FTUS45 KCYS 091720
TAFCYS
TAF
KCYS 091720Z 0918/1018 30018G28KT P6SM SKC=



000
FTUS45 KCYS 091720
TAFLAR
TAF
KLAR 091720Z 0918/1018 30010KT P6SM SKC
     FM100600 25015G25KT P6SM SKC=



000
FTUS45 KCYS 091720
TAFRWL
TAF
KRWL 091720Z 0918/1018 25015G25KT P6SM SKC=



000
FTUS45 KCYS 091720
TAFCYS
TAF
KCYS 091720Z 0918/1018 30018G28KT P6SM SKC=



000
FTUS45 KCYS 091720
TAFLAR
TAF
KLAR 091720Z 0918/1018 30010KT P6SM SKC
     FM100600 25015G25KT P6SM SKC=



000
FTUS45 KCYS 091720
TAFLAR
TAF
KLAR 091720Z 0918/1018 30010KT P6SM SKC
     FM100600 25015G25KT P6SM SKC=



000
FTUS45 KCYS 091720
TAFRWL
TAF
KRWL 091720Z 0918/1018 25015G25KT P6SM SKC=



000
FTUS45 KCYS 091720
TAFCYS
TAF
KCYS 091720Z 0918/1018 30018G28KT P6SM SKC=



000
FTUS45 KCYS 091720
TAFRWL
TAF
KRWL 091720Z 0918/1018 25015G25KT P6SM SKC=



000
FTUS45 KCYS 091131
TAFRWL
TAF
KRWL 091131Z 0912/1012 25014G21KT P6SM SKC=



000
FTUS45 KCYS 091131
TAFLAR
TAF
KLAR 091131Z 0912/1012 08009KT P6SM SKC
     FM091600 25009KT P6SM SKC=



000
FTUS45 KCYS 091131
TAFCYS
TAF
KCYS 091131Z 0912/1012 30015G22KT P6SM SKC=



000
FTUS45 KCYS 090843 AAA
TAFCYS
TAF AMD
KCYS 090843Z 0909/1006 30012G19KT P6SM SKC=



000
FTUS45 KCYS 090843 AAA
TAFCYS
TAF AMD
KCYS 090843Z 0909/1006 30012G19KT P6SM SKC=



000
FTUS45 KCYS 090843 AAA
TAFCYS
TAF AMD
KCYS 090843Z 0909/1006 30012G19KT P6SM SKC=



000
FTUS45 KCYS 090520
TAFLAR
TAF
KLAR 090520Z 0906/1006 28010KT P6SM SCT250=



000
FTUS45 KCYS 090520
TAFLAR
TAF
KLAR 090520Z 0906/1006 28010KT P6SM SCT250=



000
FTUS45 KCYS 090520
TAFLAR
TAF
KLAR 090520Z 0906/1006 28010KT P6SM SCT250=



000
FTUS45 KCYS 090520
TAFCYS
TAF
KCYS 090520Z 0906/1006 30018G28KT P6SM SCT250=



000
FTUS45 KCYS 090520
TAFRWL
TAF
KRWL 090520Z 0906/1006 25012G20KT P6SM SCT250=



000
FTUS45 KCYS 090520
TAFCYS
TAF
KCYS 090520Z 0906/1006 30018G28KT P6SM SCT250=



000
FTUS45 KCYS 090520
TAFRWL
TAF
KRWL 090520Z 0906/1006 25012G20KT P6SM SCT250=



000
FTUS45 KCYS 090520
TAFCYS
TAF
KCYS 090520Z 0906/1006 30018G28KT P6SM SCT250=



000
FTUS45 KCYS 090520
TAFRWL
TAF
KRWL 090520Z 0906/1006 25012G20KT P6SM SCT250=



000
FTUS45 KCYS 082324
TAFLAR
TAF
KLAR 082324Z 0900/0924 30012KT P6SM SCT250=



000
FTUS45 KCYS 082324
TAFCYS
TAF
KCYS 082324Z 0900/0924 30018G28KT P6SM SCT250=



000
FTUS45 KCYS 082324
TAFRWL
TAF
KRWL 082324Z 0900/0924 25015G25KT P6SM SCT250=



000
FTUS45 KCYS 081837 CCB
TAFLAR
TAF COR
KLAR 081837Z 0819/0918 32013G23KT P6SM BKN060
     FM090100 27011KT P6SM BKN250=



000
FTUS45 KCYS 081837 CCA
TAFRWL
TAF COR
KRWL 081837Z 0819/0918 25018G28KT P6SM BKN250
     FM090000 25012KT P6SM SCT250=



000
FTUS45 KCYS 081836 CCB
TAFCYS
TAF COR
KCYS 081836Z 0819/0918 31020G30KT P6SM BKN060
     FM090600 31015G25KT P6SM BKN250=



000
FTUS45 KCYS 081836 CCB
TAFCYS
TAF COR
KCYS 081836Z 0819/0918 31020G30KT P6SM BKN060
     FM090600 31015G25KT P6SM BKN250=



000
FTUS45 KCYS 081836 CCB
TAFCYS
TAF COR
KCYS 081836Z 0819/0918 31020G30KT P6SM BKN060
     FM090600 31015G25KT P6SM BKN250=



000
FTUS45 KCYS 081203 CCA
TAFLAR
TAF COR
KLAR 081203Z 0812/0912 30018KT P6SM BKN060
     FM082200 30014KT P6SM SCT060=



000
FTUS45 KCYS 081122
TAFRWL
TAF
KRWL 081122Z 0812/0912 25016KT P6SM BKN060
     FM081900 25017G23KT P6SM SCT060
     FM090200 26013KT P6SM SCT250=



000
FTUS45 KCYS 081122
TAFLAR
TAF
KLAR 081122Z 0812/0912 30018G26KT P6SM BKN060
     FM082200 30014KT P6SM SCT060=



000
FTUS45 KCYS 081122
TAFCYS
TAF
KCYS 081122Z 0812/0912 31016G25KT P6SM BKN060
     FM082000 31017G25KT P6SM SCT060 BKN250=



000
FTUS45 KCYS 080701 AAB
TAFCYS
TAF AMD
KCYS 080701Z 0807/0906 36010KT P6SM BKN080
     FM081600 31017G24KT P6SM SCT250=



000
FTUS45 KCYS 080701 AAA
TAFRWL
TAF AMD
KRWL 080701Z 0807/0906 26014KT P6SM BKN070
     FM081900 25017G23KT P6SM SCT250
     FM090200 26011KT P6SM SCT250=



000
FTUS45 KCYS 080701 AAB
TAFCYS
TAF AMD
KCYS 080701Z 0807/0906 36010KT P6SM BKN080
     FM081600 31017G24KT P6SM SCT250=



000
FTUS45 KCYS 080701 AAA
TAFRWL
TAF AMD
KRWL 080701Z 0807/0906 26014KT P6SM BKN070
     FM081900 25017G23KT P6SM SCT250
     FM090200 26011KT P6SM SCT250=



000
FTUS45 KCYS 080701 AAA
TAFRWL
TAF AMD
KRWL 080701Z 0807/0906 26014KT P6SM BKN070
     FM081900 25017G23KT P6SM SCT250
     FM090200 26011KT P6SM SCT250=



000
FTUS45 KCYS 080701 AAB
TAFCYS
TAF AMD
KCYS 080701Z 0807/0906 36010KT P6SM BKN080
     FM081600 31017G24KT P6SM SCT250=



000
FTUS45 KCYS 080657 AAA
TAFCYS
TAF AMD
KCYS 080657Z 0807/0906 33013KT P6SM SCT250
     FM081600 31017G24KT P6SM SCT250=



000
FTUS45 KCYS 080657 AAA
TAFCYS
TAF AMD
KCYS 080657Z 0807/0906 33013KT P6SM SCT250
     FM081600 31017G24KT P6SM SCT250=



000
FTUS45 KCYS 080657 AAA
TAFCYS
TAF AMD
KCYS 080657Z 0807/0906 33013KT P6SM SCT250
     FM081600 31017G24KT P6SM SCT250=



000
FTUS45 KCYS 080543 CCA
TAFRWL
TAF COR
KRWL 080543Z 0806/0906 26014G23KT P6SM BKN060
     FM081900 25017G23KT P6SM SCT250
     FM090200 26011KT P6SM SCT250=



000
FTUS45 KCYS 080520
TAFLAR
TAF
KLAR 080520Z 0806/0906 30008KT P6SM SCT250
     FM080900 28012KT P6SM BKN250=



000
FTUS45 KCYS 080520
TAFCYS
TAF
KCYS 080520Z 0806/0906 31015G23KT P6SM SCT200=



000
FTUS45 KCYS 080520
TAFRWL
TAF
KRWL 080520Z 0806/0906 26014G23KT P6SM SCT250
     FM090200 26011KT P6SM SCT250=



000
FTUS45 KCYS 072326
TAFCYS
TAF
KCYS 072326Z 0800/0824 31015G23KT P6SM SCT200=



000
FTUS45 KCYS 072326
TAFRWL
TAF
KRWL 072326Z 0800/0824 26013G21KT P6SM SCT200=



000
FTUS45 KCYS 072326
TAFLAR
TAF
KLAR 072326Z 0800/0824 30008KT P6SM SCT250
     FM080900 28012KT P6SM BKN250=



000
FTUS45 KCYS 072326
TAFLAR
TAF
KLAR 072326Z 0800/0824 30008KT P6SM SCT250
     FM080900 28012KT P6SM BKN250=



000
FTUS45 KCYS 072326
TAFCYS
TAF
KCYS 072326Z 0800/0824 31015G23KT P6SM SCT200=



000
FTUS45 KCYS 072326
TAFRWL
TAF
KRWL 072326Z 0800/0824 26013G21KT P6SM SCT200=



000
FTUS45 KCYS 072326
TAFCYS
TAF
KCYS 072326Z 0800/0824 31015G23KT P6SM SCT200=



000
FTUS45 KCYS 072326
TAFRWL
TAF
KRWL 072326Z 0800/0824 26013G21KT P6SM SCT200=



000
FTUS45 KCYS 072326
TAFLAR
TAF
KLAR 072326Z 0800/0824 30008KT P6SM SCT250
     FM080900 28012KT P6SM BKN250=



000
FTUS45 KCYS 071743
TAFLAR
TAF
KLAR 071743Z 0718/0818 30017G26KT P6SM SCT050
     FM080200 29013KT P6SM SCT200=



000
FTUS45 KCYS 071743
TAFRWL
TAF
KRWL 071743Z 0718/0818 25022KT P6SM SCT200
     FM080100 27013KT P6SM SCT200
     FM081500 24013G21KT P6SM SCT200=



000
FTUS45 KCYS 071743
TAFCYS
TAF
KCYS 071743Z 0718/0818 33025G35KT P6SM SCT050
     FM080000 31015G23KT P6SM SCT200=



000
FTUS45 KCYS 071743
TAFRWL
TAF
KRWL 071743Z 0718/0818 25022KT P6SM SCT200
     FM080100 27013KT P6SM SCT200
     FM081500 24013G21KT P6SM SCT200=



000
FTUS45 KCYS 071743
TAFLAR
TAF
KLAR 071743Z 0718/0818 30017G26KT P6SM SCT050
     FM080200 29013KT P6SM SCT200=



000
FTUS45 KCYS 071743
TAFCYS
TAF
KCYS 071743Z 0718/0818 33025G35KT P6SM SCT050
     FM080000 31015G23KT P6SM SCT200=



000
FTUS45 KCYS 071743
TAFCYS
TAF
KCYS 071743Z 0718/0818 33025G35KT P6SM SCT050
     FM080000 31015G23KT P6SM SCT200=



000
FTUS45 KCYS 071743
TAFLAR
TAF
KLAR 071743Z 0718/0818 30017G26KT P6SM SCT050
     FM080200 29013KT P6SM SCT200=



000
FTUS45 KCYS 071743
TAFRWL
TAF
KRWL 071743Z 0718/0818 25022KT P6SM SCT200
     FM080100 27013KT P6SM SCT200
     FM081500 24013G21KT P6SM SCT200=



000
FTUS45 KCYS 071601 AAA
TAFCYS
TAF AMD
KCYS 071601Z 0716/0812 33018G27KT 2SM -SN BR OVC035
     FM071730 33022G30KT P6SM SCT100
     FM080000 33017G26KT P6SM SCT200
     FM080800 30012KT P6SM SCT250=



000
FTUS45 KCYS 071601 AAA
TAFCYS
TAF AMD
KCYS 071601Z 0716/0812 33018G27KT 2SM -SN BR OVC035
     FM071730 33022G30KT P6SM SCT100
     FM080000 33017G26KT P6SM SCT200
     FM080800 30012KT P6SM SCT250=



000
FTUS45 KCYS 071601 AAA
TAFCYS
TAF AMD
KCYS 071601Z 0716/0812 33018G27KT 2SM -SN BR OVC035
     FM071730 33022G30KT P6SM SCT100
     FM080000 33017G26KT P6SM SCT200
     FM080800 30012KT P6SM SCT250=



000
FTUS45 KCYS 071139
TAFLAR
TAF
KLAR 071139Z 0712/0812 27022G31KT P6SM SCT200
     FM072200 29018G24KT P6SM BKN200
     FM080200 31013KT P6SM SCT200
     FM080700 25005KT P6SM SCT200=



000
FTUS45 KCYS 071139
TAFRWL
TAF
KRWL 071139Z 0712/0812 25018G27KT P6SM SCT200
     FM080100 27013KT P6SM SCT200
     FM080600 24008KT P6SM SCT200=



000
FTUS45 KCYS 071139
TAFRWL
TAF
KRWL 071139Z 0712/0812 25018G27KT P6SM SCT200
     FM080100 27013KT P6SM SCT200
     FM080600 24008KT P6SM SCT200=



000
FTUS45 KCYS 071139
TAFCYS
TAF
KCYS 071139Z 0712/0812 29018G27KT P6SM SCT150
     FM071600 33023G33KT P6SM SCT200
     FM080000 33017G26KT P6SM SCT200
     FM080800 30012KT P6SM SCT250=



000
FTUS45 KCYS 071139
TAFLAR
TAF
KLAR 071139Z 0712/0812 27022G31KT P6SM SCT200
     FM072200 29018G24KT P6SM BKN200
     FM080200 31013KT P6SM SCT200
     FM080700 25005KT P6SM SCT200=



000
FTUS45 KCYS 071139
TAFCYS
TAF
KCYS 071139Z 0712/0812 29018G27KT P6SM SCT150
     FM071600 33023G33KT P6SM SCT200
     FM080000 33017G26KT P6SM SCT200
     FM080800 30012KT P6SM SCT250=



000
FTUS45 KCYS 070613 RRA
TAFRWL
TAF
KRWL 070613Z 0706/0806 24024G33KT P6SM SCT150
     FM071200 25020G27KT P6SM BKN250
     FM080100 27013KT P6SM SCT250=



000
FTUS45 KCYS 070613 RRA
TAFLAR
TAF
KLAR 070613Z 0706/0806 27022G31KT P6SM BKN250
     FM072200 29018G24KT P6SM BKN250
     FM080200 31010KT P6SM SCT250=



000
FTUS45 KCYS 070613 RRA
TAFCYS
TAF
KCYS 070613Z 0706/0806 30018G27KT P6SM SCT250
     FM071600 33023G33KT P6SM SCT250
     FM080000 33017G26KT P6SM SCT250=



    US Dept of Commerce
    National Oceanic and Atmospheric Administration
    National Weather Service
    1325 East West Highway
    Silver Spring, MD 20910
    Page Author: NWS Internet Services Team
Disclaimer
Information Quality
Credits
Glossary
Privacy Policy
Freedom of Information Act (FOIA)
About Us
Career Opportunities